createdAt,value
2023-09-07T00:04:40.820Z,20.91
2023-09-07T00:09:42.583Z,20.87
2023-09-07T00:14:44.288Z,20.84
2023-09-07T00:19:46.070Z,20.83
2023-09-07T00:24:47.943Z,20.80
2023-09-07T00:29:49.692Z,20.76
2023-09-07T00:34:51.376Z,20.73
2023-09-07T00:39:53.008Z,20.67
2023-09-07T00:44:54.870Z,20.63
2023-09-07T00:49:56.650Z,20.57
2023-09-07T00:54:58.468Z,20.51
2023-09-07T01:00:00.377Z,20.46
2023-09-07T01:05:05.233Z,20.43
2023-09-07T01:10:07.527Z,20.38
2023-09-07T01:15:09.974Z,20.33
2023-09-07T01:20:12.290Z,20.28
2023-09-07T01:25:14.141Z,20.25
2023-09-07T01:30:16.699Z,20.23
2023-09-07T01:35:18.655Z,20.18
2023-09-07T01:40:20.798Z,20.13
2023-09-07T01:45:22.700Z,20.09
2023-09-07T01:50:24.381Z,20.02
2023-09-07T01:55:28.064Z,19.99
2023-09-07T02:00:29.880Z,19.97
2023-09-07T02:05:32.471Z,19.92
2023-09-07T02:10:35.057Z,19.87
2023-09-07T02:15:40.189Z,19.83
2023-09-07T02:20:42.029Z,19.78
2023-09-07T02:25:43.842Z,19.72
2023-09-07T02:30:45.803Z,19.65
2023-09-07T02:35:50.957Z,19.58
2023-09-07T02:40:52.966Z,19.52
2023-09-07T02:45:54.785Z,19.48
2023-09-07T02:50:56.780Z,19.45
2023-09-07T02:55:58.702Z,19.42
2023-09-07T03:01:00.570Z,19.41
2023-09-07T03:06:12.087Z,19.39
2023-09-07T03:11:13.999Z,19.37
2023-09-07T03:16:16.020Z,19.35
2023-09-07T03:21:18.151Z,19.33
2023-09-07T03:26:19.902Z,19.30
2023-09-07T03:31:21.676Z,19.27
2023-09-07T03:36:23.562Z,19.24
2023-09-07T03:41:25.327Z,19.21
2023-09-07T03:46:30.097Z,19.20
2023-09-07T03:51:32.279Z,19.17
2023-09-07T03:56:33.879Z,19.16
2023-09-07T04:01:35.716Z,19.16
2023-09-07T04:06:37.499Z,19.18
2023-09-07T04:11:39.259Z,19.20
2023-09-07T04:16:43.635Z,19.23
2023-09-07T04:21:45.928Z,19.26
2023-09-07T04:26:48.699Z,19.27
2023-09-07T04:31:52.794Z,19.27
2023-09-07T04:36:54.903Z,19.28
2023-09-07T04:41:56.573Z,19.31
2023-09-07T04:46:58.431Z,19.35
2023-09-07T04:52:00.436Z,19.39
2023-09-07T04:57:02.093Z,19.49
2023-09-07T05:02:04.110Z,19.66
2023-09-07T05:07:06.376Z,19.87
2023-09-07T05:12:08.379Z,20.12
2023-09-07T05:17:10.261Z,20.39
2023-09-07T05:22:12.211Z,20.67
2023-09-07T05:27:14.019Z,20.96
2023-09-07T05:32:15.785Z,21.20
2023-09-07T05:37:17.609Z,21.45
2023-09-07T05:42:19.459Z,21.69
2023-09-07T05:47:21.549Z,21.92
2023-09-07T05:52:23.336Z,22.12
2023-09-07T05:57:25.469Z,22.36
2023-09-07T06:02:27.485Z,22.59
2023-09-07T06:07:29.430Z,22.57
2023-09-07T06:12:31.107Z,22.75
2023-09-07T06:17:32.952Z,22.98
2023-09-07T06:22:34.872Z,23.21
2023-09-07T06:27:36.741Z,23.46
2023-09-07T06:32:38.615Z,23.69
2023-09-07T06:37:40.490Z,23.88
2023-09-07T06:42:42.469Z,23.99
2023-09-07T06:47:44.890Z,23.83
2023-09-07T06:52:46.947Z,24.10
2023-09-07T06:57:48.846Z,24.45
2023-09-07T07:02:50.778Z,24.82
2023-09-07T07:07:52.809Z,25.13
2023-09-07T07:12:54.582Z,25.32
2023-09-07T07:17:56.344Z,25.48
2023-09-07T07:22:58.288Z,25.61
2023-09-07T07:28:01.059Z,25.73
2023-09-07T07:33:03.481Z,25.72
2023-09-07T07:38:05.385Z,25.74
2023-09-07T07:43:07.205Z,25.90
2023-09-07T07:48:09.352Z,26.14
2023-09-07T07:53:11.414Z,26.39
2023-09-07T07:58:13.303Z,26.61
2023-09-07T08:03:15.080Z,26.74
2023-09-07T08:08:16.964Z,26.58
2023-09-07T08:13:18.767Z,26.43
2023-09-07T08:18:20.846Z,26.29
2023-09-07T08:23:23.139Z,26.13
2023-09-07T08:28:24.857Z,26.16
2023-09-07T08:33:27.057Z,26.59
2023-09-07T08:38:29.711Z,26.86
2023-09-07T08:43:37.023Z,27.20
2023-09-07T08:48:38.893Z,27.60
2023-09-07T08:53:41.174Z,27.81
2023-09-07T08:58:43.029Z,27.99
2023-09-07T09:03:44.938Z,28.11
2023-09-07T09:08:47.952Z,28.32
2023-09-07T09:13:50.956Z,28.42
2023-09-07T09:18:54.139Z,28.74
2023-09-07T09:23:57.528Z,29.13
2023-09-07T09:29:01.139Z,29.69
2023-09-07T09:34:03.027Z,30.13
2023-09-07T09:39:05.378Z,30.47
2023-09-07T09:44:07.959Z,30.71
2023-09-07T09:49:09.786Z,30.89
2023-09-07T09:54:11.609Z,30.99
2023-09-07T09:59:14.965Z,31.29
2023-09-07T10:04:18.620Z,31.63
2023-09-07T10:09:20.575Z,31.94
2023-09-07T10:14:22.501Z,32.09
2023-09-07T10:19:25.104Z,32.33
2023-09-07T10:24:28.195Z,32.67
2023-09-07T10:29:30.217Z,32.99
2023-09-07T10:34:36.210Z,33.27
2023-09-07T10:39:38.178Z,33.33
2023-09-07T10:44:40.229Z,33.11
2023-09-07T10:49:42.161Z,33.47
2023-09-07T10:54:44.226Z,33.86
2023-09-07T10:59:46.697Z,34.05
2023-09-07T11:04:51.270Z,33.92
2023-09-07T11:09:53.372Z,34.00
2023-09-07T11:14:55.464Z,34.73
2023-09-07T11:19:57.434Z,35.31
2023-09-07T11:25:00.783Z,34.62
2023-09-07T11:30:02.723Z,34.59
2023-09-07T11:35:05.174Z,34.34
2023-09-07T11:40:07.818Z,34.90
2023-09-07T11:45:10.192Z,35.40
2023-09-07T11:50:12.005Z,34.55
2023-09-07T11:55:16.977Z,35.23
2023-09-07T12:00:19.278Z,35.66
2023-09-07T12:05:21.253Z,36.59
2023-09-07T12:10:23.198Z,37.50
2023-09-07T12:15:25.048Z,38.29
2023-09-07T12:20:26.952Z,38.89
2023-09-07T12:25:29.313Z,39.36
2023-09-07T12:30:31.104Z,39.29
2023-09-07T12:35:32.867Z,39.71
2023-09-07T12:40:36.366Z,39.85
2023-09-07T12:45:38.658Z,40.27
2023-09-07T12:50:41.994Z,40.86
2023-09-07T12:55:43.862Z,40.80
2023-09-07T13:00:45.740Z,40.83
2023-09-07T13:05:47.629Z,40.02
2023-09-07T13:10:49.348Z,38.82
2023-09-07T13:15:51.096Z,38.10
2023-09-07T13:20:53.041Z,37.45
2023-09-07T13:25:56.058Z,37.52
2023-09-07T13:30:58.054Z,37.42
2023-09-07T13:36:00.016Z,36.86
2023-09-07T13:41:01.812Z,36.91
2023-09-07T13:46:04.876Z,35.90
2023-09-07T13:51:06.982Z,34.58
2023-09-07T13:56:08.777Z,33.39
2023-09-07T14:01:10.705Z,32.48
2023-09-07T14:06:12.523Z,31.76
2023-09-07T14:11:14.496Z,31.15
2023-09-07T14:16:16.229Z,30.66
2023-09-07T14:21:18.454Z,30.28
2023-09-07T14:26:20.439Z,29.92
2023-09-07T14:31:22.276Z,29.63
2023-09-07T14:36:24.198Z,29.41
2023-09-07T14:41:25.990Z,29.22
2023-09-07T14:46:27.846Z,29.03
2023-09-07T14:51:29.682Z,28.84
2023-09-07T14:56:31.615Z,28.70
2023-09-07T15:01:33.366Z,28.59
2023-09-07T15:06:35.477Z,28.53
2023-09-07T15:11:37.445Z,28.41
2023-09-07T15:16:39.349Z,28.29
2023-09-07T15:21:41.198Z,28.21
2023-09-07T15:26:43.851Z,28.11
2023-09-07T15:31:45.729Z,28.04
2023-09-07T15:36:47.919Z,27.98
2023-09-07T15:41:49.842Z,27.91
2023-09-07T15:46:51.720Z,27.82
2023-09-07T15:51:53.350Z,27.73
2023-09-07T15:57:00.527Z,27.65
2023-09-07T16:02:06.597Z,27.57
2023-09-07T16:07:08.341Z,27.47
2023-09-07T16:12:10.121Z,27.42
2023-09-07T16:17:11.991Z,27.37
2023-09-07T16:22:14.000Z,27.27
2023-09-07T16:27:15.682Z,27.18
2023-09-07T16:32:17.657Z,27.10
2023-09-07T16:37:19.623Z,27.01
2023-09-07T16:42:21.418Z,26.92
2023-09-07T16:47:24.426Z,26.86
2023-09-07T16:52:26.958Z,26.78
2023-09-07T16:57:29.195Z,26.71
2023-09-07T17:02:30.946Z,26.60
2023-09-07T17:07:32.845Z,26.51
2023-09-07T17:12:34.825Z,26.41
2023-09-07T17:17:36.723Z,26.31
2023-09-07T17:22:38.776Z,26.21
2023-09-07T17:27:40.757Z,26.13
2023-09-07T17:32:42.599Z,26.05
2023-09-07T17:37:44.465Z,25.96
2023-09-07T17:42:46.351Z,25.88
2023-09-07T17:47:48.322Z,25.79
2023-09-07T17:52:50.159Z,25.71
2023-09-07T17:57:52.357Z,25.65
2023-09-07T18:03:00.010Z,25.59
2023-09-07T18:08:02.239Z,25.54
2023-09-07T18:13:04.851Z,25.47
2023-09-07T18:18:07.305Z,25.42
2023-09-07T18:23:09.216Z,25.38
2023-09-07T18:28:11.363Z,25.31
2023-09-07T18:33:13.173Z,25.28
2023-09-07T18:38:14.864Z,25.24
2023-09-07T18:43:16.786Z,25.18
2023-09-07T18:48:18.703Z,25.09
2023-09-07T18:53:20.654Z,25.04
2023-09-07T18:58:22.978Z,25.00
2023-09-07T19:03:24.946Z,24.93
2023-09-07T19:08:26.954Z,24.88
2023-09-07T19:13:28.641Z,24.85
2023-09-07T19:18:30.769Z,24.82
2023-09-07T19:23:33.021Z,24.76
2023-09-07T19:28:35.331Z,24.72
2023-09-07T19:33:37.474Z,24.67
2023-09-07T19:38:39.440Z,24.62
2023-09-07T19:43:44.083Z,24.57
2023-09-07T19:48:49.170Z,24.54
2023-09-07T19:53:51.821Z,24.51
2023-09-07T19:58:53.726Z,24.49
2023-09-07T20:03:57.103Z,24.44
2023-09-07T20:08:58.869Z,24.41
2023-09-07T20:14:00.776Z,24.34
2023-09-07T20:19:02.698Z,24.31
2023-09-07T20:24:05.185Z,24.27
2023-09-07T20:29:06.986Z,24.24
2023-09-07T20:34:08.787Z,24.18
2023-09-07T20:39:10.688Z,24.13
2023-09-07T20:44:12.543Z,24.08
2023-09-07T20:49:14.472Z,24.05
2023-09-07T20:54:16.168Z,23.99
2023-09-07T20:59:18.170Z,23.94
2023-09-07T21:04:19.925Z,23.90
2023-09-07T21:09:21.828Z,23.86
2023-09-07T21:14:23.604Z,23.82
2023-09-07T21:19:25.388Z,23.76
2023-09-07T21:24:27.221Z,23.70
2023-09-07T21:29:29.116Z,23.63
2023-09-07T21:34:31.031Z,23.60
2023-09-07T21:39:34.849Z,23.56
2023-09-07T21:44:37.039Z,23.49
2023-09-07T21:49:38.904Z,23.44
2023-09-07T21:54:40.539Z,23.39
2023-09-07T21:59:42.360Z,23.33
2023-09-07T22:04:44.475Z,23.29
2023-09-07T22:09:46.322Z,23.25
2023-09-07T22:14:47.977Z,23.19
2023-09-07T22:19:49.650Z,23.11
2023-09-07T22:24:51.644Z,22.99
2023-09-07T22:29:53.340Z,22.90
2023-09-07T22:34:55.194Z,22.82
2023-09-07T22:39:58.202Z,22.75
2023-09-07T22:45:00.080Z,22.66
2023-09-07T22:50:02.166Z,22.60
2023-09-07T22:55:07.062Z,22.47
2023-09-07T23:00:09.246Z,22.39
2023-09-07T23:05:11.174Z,22.29
2023-09-07T23:10:13.052Z,22.23
2023-09-07T23:15:15.177Z,22.17
2023-09-07T23:20:16.994Z,22.12
2023-09-07T23:25:18.994Z,22.09
2023-09-07T23:30:20.809Z,22.07
2023-09-07T23:35:22.813Z,21.98
2023-09-07T23:40:24.830Z,21.94
2023-09-07T23:45:26.818Z,21.87
2023-09-07T23:50:28.814Z,21.83
2023-09-07T23:55:30.581Z,21.80
